createdAt,value
2024-02-10T00:00:58.877Z,98365.00
2024-02-10T00:03:25.317Z,98368.91
2024-02-10T00:05:51.814Z,98370.13
2024-02-10T00:08:18.296Z,98369.53
2024-02-10T00:10:44.908Z,98367.88
2024-02-10T00:13:12.798Z,98360.47
2024-02-10T00:15:41.685Z,98372.00
2024-02-10T00:18:09.903Z,98372.41
2024-02-10T00:20:37.891Z,98372.19
2024-02-10T00:23:05.247Z,98369.31
2024-02-10T00:25:32.865Z,98362.94
2024-02-10T00:28:01.471Z,98362.13
2024-02-10T00:30:30.384Z,98360.91
2024-02-10T00:32:57.192Z,98366.25
2024-02-10T00:35:24.284Z,98371.81
2024-02-10T00:37:51.176Z,98374.06
2024-02-10T00:40:17.755Z,98372.03
2024-02-10T00:42:44.199Z,98373.06
2024-02-10T00:45:10.776Z,98371.81
2024-02-10T00:47:37.418Z,98374.50
2024-02-10T00:50:04.542Z,98359.03
2024-02-10T00:52:31.106Z,98362.16
2024-02-10T00:54:57.569Z,98362.97
2024-02-10T00:57:24.369Z,98353.09
2024-02-10T00:59:50.816Z,98358.25
2024-02-10T01:02:20.583Z,98347.97
2024-02-10T01:04:48.484Z,98362.53
2024-02-10T01:07:16.420Z,98360.47
2024-02-10T01:09:50.141Z,98354.53
2024-02-10T01:12:17.445Z,98367.06
2024-02-10T01:14:44.347Z,98362.34
2024-02-10T01:17:12.016Z,98365.59
2024-02-10T01:19:51.118Z,98373.41
2024-02-10T01:22:29.978Z,98371.56
2024-02-10T01:24:57.067Z,98369.94
2024-02-10T01:27:28.693Z,98375.88
2024-02-10T01:29:56.746Z,98376.06
2024-02-10T01:32:26.609Z,98378.53
2024-02-10T01:34:54.791Z,98369.72
2024-02-10T01:37:22.371Z,98376.88
2024-02-10T01:39:50.290Z,98372.78
2024-02-10T01:42:19.299Z,98369.50
2024-02-10T01:44:46.428Z,98378.72
2024-02-10T01:47:14.986Z,98382.00
2024-02-10T01:49:45.022Z,98374.81
2024-02-10T01:52:13.590Z,98370.09
2024-02-10T01:54:40.840Z,98374.81
2024-02-10T01:57:08.817Z,98376.84
2024-02-10T01:59:36.622Z,98366.78
2024-02-10T02:02:06.879Z,98366.59
2024-02-10T02:04:37.863Z,98371.13
2024-02-10T02:07:10.080Z,98367.22
2024-02-10T02:09:37.349Z,98361.06
2024-02-10T02:12:08.347Z,98367.44
2024-02-10T02:14:38.360Z,98372.13
2024-02-10T02:17:10.452Z,98366.78
2024-02-10T02:19:41.967Z,98365.78
2024-02-10T02:22:11.504Z,98360.63
2024-02-10T02:24:38.157Z,98366.97
2024-02-10T02:27:07.128Z,98361.66
2024-02-10T02:29:33.714Z,98360.22
2024-02-10T02:32:01.286Z,98366.34
2024-02-10T02:34:28.840Z,98362.44
2024-02-10T02:36:55.385Z,98363.03
2024-02-10T02:39:22.090Z,98359.34
2024-02-10T02:41:49.033Z,98356.28
2024-02-10T02:44:16.102Z,98356.66
2024-02-10T02:46:43.750Z,98358.91
2024-02-10T02:49:10.883Z,98354.81
2024-02-10T02:51:37.328Z,98357.66
2024-02-10T02:54:03.922Z,98350.66
2024-02-10T02:56:30.328Z,98350.91
2024-02-10T02:58:57.162Z,98350.06
2024-02-10T03:01:27.053Z,98346.38
2024-02-10T03:03:54.090Z,98346.56
2024-02-10T03:06:21.680Z,98342.25
2024-02-10T03:08:48.720Z,98337.94
2024-02-10T03:11:19.536Z,98335.72
2024-02-10T03:13:49.663Z,98334.47
2024-02-10T03:16:20.420Z,98335.69
2024-02-10T03:18:47.842Z,98326.69
2024-02-10T03:21:15.435Z,98326.50
2024-02-10T03:23:42.267Z,98325.44
2024-02-10T03:26:09.008Z,98319.88
2024-02-10T03:28:35.663Z,98321.97
2024-02-10T03:31:08.882Z,98319.50
2024-02-10T03:33:35.969Z,98317.22
2024-02-10T03:36:04.194Z,98321.75
2024-02-10T03:38:32.237Z,98328.69
2024-02-10T03:40:58.716Z,98317.38
2024-02-10T03:43:28.888Z,98312.47
2024-02-10T03:45:55.605Z,98324.97
2024-02-10T03:48:22.273Z,98312.25
2024-02-10T03:50:49.103Z,98320.06
2024-02-10T03:53:15.734Z,98313.28
2024-02-10T03:55:42.572Z,98318.81
2024-02-10T03:58:10.596Z,98315.75
2024-02-10T04:00:39.647Z,98324.56
2024-02-10T04:03:09.274Z,98312.66
2024-02-10T04:05:36.104Z,98318.00
2024-02-10T04:08:03.878Z,98320.66
2024-02-10T04:10:30.395Z,98327.44
2024-02-10T04:12:57.135Z,98323.13
2024-02-10T04:15:23.859Z,98317.81
2024-02-10T04:17:54.090Z,98321.50
2024-02-10T04:20:24.283Z,98317.38
2024-02-10T04:22:51.127Z,98316.78
2024-02-10T04:25:17.625Z,98321.72
2024-02-10T04:27:44.387Z,98314.91
2024-02-10T04:30:14.712Z,98327.00
2024-02-10T04:32:43.713Z,98330.25
2024-02-10T04:35:10.885Z,98322.47
2024-02-10T04:37:37.525Z,98330.66
2024-02-10T04:40:04.870Z,98326.16
2024-02-10T04:42:32.279Z,98327.56
2024-02-10T04:44:59.955Z,98330.84
2024-02-10T04:47:26.808Z,98333.66
2024-02-10T04:49:53.672Z,98328.09
2024-02-10T04:52:20.148Z,98330.75
2024-02-10T04:54:46.548Z,98334.19
2024-02-10T04:57:13.025Z,98330.06
2024-02-10T04:59:39.704Z,98325.41
2024-02-10T05:02:06.169Z,98328.06
2024-02-10T05:04:32.671Z,98323.31
2024-02-10T05:06:59.083Z,98330.81
2024-02-10T05:09:25.478Z,98324.69
2024-02-10T05:11:51.858Z,98331.84
2024-02-10T05:14:18.327Z,98326.09
2024-02-10T05:16:44.741Z,98331.19
2024-02-10T05:19:11.366Z,98326.84
2024-02-10T05:21:39.157Z,98322.91
2024-02-10T05:24:13.729Z,98329.25
2024-02-10T05:26:41.547Z,98322.88
2024-02-10T05:29:11.357Z,98328.59
2024-02-10T05:31:38.589Z,98324.09
2024-02-10T05:34:05.999Z,98327.75
2024-02-10T05:36:38.570Z,98326.09
2024-02-10T05:39:09.868Z,98330.41
2024-02-10T05:41:42.259Z,98323.69
2024-02-10T05:44:13.990Z,98326.75
2024-02-10T05:46:44.984Z,98329.41
2024-02-10T05:49:11.631Z,98331.81
2024-02-10T05:51:41.482Z,98327.50
2024-02-10T05:54:07.989Z,98330.34
2024-02-10T05:56:37.029Z,98341.78
2024-02-10T05:59:06.379Z,98346.53
2024-02-10T06:01:32.897Z,98345.25
2024-02-10T06:03:59.749Z,98341.72
2024-02-10T06:06:26.300Z,98341.72
2024-02-10T06:08:52.737Z,98342.75
2024-02-10T06:11:20.191Z,98350.47
2024-02-10T06:13:52.789Z,98351.22
2024-02-10T06:16:22.836Z,98348.13
2024-02-10T06:18:50.775Z,98347.50
2024-02-10T06:21:17.402Z,98355.94
2024-02-10T06:23:43.900Z,98354.09
2024-02-10T06:26:14.869Z,98353.88
2024-02-10T06:28:41.473Z,98358.59
2024-02-10T06:31:13.340Z,98353.84
2024-02-10T06:33:39.876Z,98367.44
2024-02-10T06:36:06.485Z,98371.31
2024-02-10T06:38:36.150Z,98374.53
2024-02-10T06:41:03.523Z,98381.25
2024-02-10T06:43:32.754Z,98386.28
2024-02-10T06:46:01.681Z,98389.94
2024-02-10T06:48:28.553Z,98400.69
2024-02-10T06:50:59.186Z,98399.69
2024-02-10T06:53:25.775Z,98406.13
2024-02-10T06:55:52.840Z,98407.88
2024-02-10T06:58:22.845Z,98405.59
2024-02-10T07:00:49.382Z,98407.06
2024-02-10T07:03:18.866Z,98415.59
2024-02-10T07:05:51.249Z,98417.13
2024-02-10T07:08:18.132Z,98407.91
2024-02-10T07:10:47.484Z,98409.56
2024-02-10T07:13:15.840Z,98418.53
2024-02-10T07:15:42.872Z,98418.69
2024-02-10T07:18:12.509Z,98422.19
2024-02-10T07:20:39.025Z,98427.31
2024-02-10T07:23:06.146Z,98424.94
2024-02-10T07:25:38.755Z,98425.56
2024-02-10T07:28:06.793Z,98425.00
2024-02-10T07:30:34.594Z,98430.16
2024-02-10T07:33:10.017Z,98436.91
2024-02-10T07:35:37.217Z,98440.84
2024-02-10T07:38:03.877Z,98441.88
2024-02-10T07:40:30.685Z,98444.72
2024-02-10T07:42:57.107Z,98440.22
2024-02-10T07:45:24.391Z,98451.47
2024-02-10T07:47:56.809Z,98449.84
2024-02-10T07:50:23.239Z,98457.50
2024-02-10T07:52:50.335Z,98460.44
2024-02-10T07:55:17.761Z,98465.03
2024-02-10T07:57:44.392Z,98468.41
2024-02-10T08:00:11.107Z,98467.06
2024-02-10T08:02:38.400Z,98470.72
2024-02-10T08:05:06.090Z,98476.06
2024-02-10T08:07:33.913Z,98481.09
2024-02-10T08:10:01.844Z,98476.91
2024-02-10T08:12:28.624Z,98474.97
2024-02-10T08:14:56.244Z,98472.38
2024-02-10T08:17:33.044Z,98473.88
2024-02-10T08:20:01.214Z,98465.00
2024-02-10T08:22:32.316Z,98463.81
2024-02-10T08:25:00.271Z,98462.84
2024-02-10T08:27:29.553Z,98464.97
2024-02-10T08:29:56.965Z,98470.97
2024-02-10T08:32:25.720Z,98473.13
2024-02-10T08:34:52.635Z,98476.06
2024-02-10T08:37:19.461Z,98473.06
2024-02-10T08:39:46.948Z,98462.84
2024-02-10T08:42:14.917Z,98468.00
2024-02-10T08:44:42.194Z,98470.31
2024-02-10T08:47:08.652Z,98470.97
2024-02-10T08:49:36.545Z,98473.88
2024-02-10T08:52:11.527Z,98473.06
2024-02-10T08:54:43.341Z,98474.53
2024-02-10T08:57:12.794Z,98475.59
2024-02-10T08:59:42.288Z,98472.72
2024-02-10T09:02:09.348Z,98470.72
2024-02-10T09:04:35.906Z,98470.28
2024-02-10T09:07:02.601Z,98473.81
2024-02-10T09:09:29.291Z,98477.53
2024-02-10T09:11:55.743Z,98470.97
2024-02-10T09:14:22.308Z,98476.34
2024-02-10T09:16:49.398Z,98479.03
2024-02-10T09:19:17.304Z,98470.41
2024-02-10T09:21:46.393Z,98468.56
2024-02-10T09:24:16.557Z,98464.84
2024-02-10T09:26:44.346Z,98469.78
2024-02-10T09:29:10.793Z,98466.91
2024-02-10T09:31:37.268Z,98470.97
2024-02-10T09:34:05.489Z,98473.66
2024-02-10T09:36:35.326Z,98466.84
2024-02-10T09:39:04.373Z,98465.78
2024-02-10T09:41:30.780Z,98472.16
2024-02-10T09:43:57.300Z,98463.72
2024-02-10T09:46:23.782Z,98459.56
2024-02-10T09:48:52.883Z,98463.47
2024-02-10T09:51:20.016Z,98459.34
2024-02-10T09:53:46.764Z,98458.47
2024-02-10T09:56:14.961Z,98462.31
2024-02-10T09:58:50.365Z,98467.00
2024-02-10T10:01:17.137Z,98461.63
2024-02-10T10:03:43.990Z,98463.03
2024-02-10T10:06:11.311Z,98467.94
2024-02-10T10:08:40.185Z,98465.38
2024-02-10T10:11:08.111Z,98465.53
2024-02-10T10:13:35.826Z,98458.06
2024-02-10T10:16:06.749Z,98469.91
2024-02-10T10:18:34.648Z,98476.03
2024-02-10T10:21:01.973Z,98473.16
2024-02-10T10:23:32.112Z,98476.22
2024-02-10T10:25:58.643Z,98469.44
2024-02-10T10:28:25.139Z,98473.78
2024-02-10T10:30:51.732Z,98470.03
2024-02-10T10:33:20.169Z,98472.06
2024-02-10T10:35:47.120Z,98468.69
2024-02-10T10:38:14.482Z,98469.63
2024-02-10T10:40:46.669Z,98471.00
2024-02-10T10:43:18.191Z,98470.97
2024-02-10T10:45:47.085Z,98471.53
2024-02-10T10:48:14.916Z,98473.34
2024-02-10T10:50:41.563Z,98474.56
2024-02-10T10:53:12.075Z,98469.47
2024-02-10T10:55:51.766Z,98470.47
2024-02-10T10:58:21.475Z,98458.63
2024-02-10T11:00:51.967Z,98460.22
2024-02-10T11:03:19.545Z,98468.78
2024-02-10T11:05:50.628Z,98457.59
2024-02-10T11:08:27.548Z,98461.16
2024-02-10T11:11:01.919Z,98461.16
2024-02-10T11:13:31.376Z,98458.28
2024-02-10T11:16:14.600Z,98456.03
2024-02-10T11:18:45.523Z,98450.53
2024-02-10T11:21:26.781Z,98443.41
2024-02-10T11:23:57.866Z,98440.22
2024-02-10T11:26:29.378Z,98439.88
2024-02-10T11:29:06.405Z,98441.69
2024-02-10T11:31:40.857Z,98433.66
2024-02-10T11:34:19.350Z,98426.66
2024-02-10T11:36:53.215Z,98428.56
2024-02-10T11:39:21.094Z,98420.91
2024-02-10T11:41:50.205Z,98429.38
2024-02-10T11:44:17.611Z,98412.69
2024-02-10T11:46:44.176Z,98417.19
2024-02-10T11:49:12.850Z,98413.88
2024-02-10T11:51:39.350Z,98418.06
2024-02-10T11:54:06.504Z,98413.31
2024-02-10T11:56:34.696Z,98410.53
2024-02-10T11:59:02.433Z,98403.19
2024-02-10T12:01:29.065Z,98399.03
2024-02-10T12:03:55.833Z,98405.09
2024-02-10T12:06:24.015Z,98414.53
2024-02-10T12:08:51.407Z,98404.41
2024-02-10T12:11:18.064Z,98411.63
2024-02-10T12:13:44.587Z,98411.25
2024-02-10T12:16:17.126Z,98417.00
2024-02-10T12:18:47.853Z,98426.09
2024-02-10T12:21:20.766Z,98423.56
2024-02-10T12:23:48.752Z,98419.81
2024-02-10T12:26:16.508Z,98418.78
2024-02-10T12:28:42.982Z,98419.53
2024-02-10T12:31:09.422Z,98429.66
2024-02-10T12:33:35.982Z,98433.53
2024-02-10T12:36:02.642Z,98429.44
2024-02-10T12:38:29.412Z,98417.19
2024-02-10T12:40:56.282Z,98422.91
2024-02-10T12:43:24.902Z,98419.28
2024-02-10T12:45:51.710Z,98416.44
2024-02-10T12:48:18.727Z,98418.38
2024-02-10T12:50:48.134Z,98408.78
2024-02-10T12:53:15.347Z,98406.09
2024-02-10T12:55:43.661Z,98410.38
2024-02-10T12:58:10.503Z,98407.59
2024-02-10T13:00:36.991Z,98413.91
2024-02-10T13:03:04.248Z,98410.63
2024-02-10T13:05:30.844Z,98411.06
2024-02-10T13:07:57.984Z,98405.63
2024-02-10T13:10:28.258Z,98402.69
2024-02-10T13:12:57.873Z,98406.19
2024-02-10T13:15:25.020Z,98406.34
2024-02-10T13:17:53.091Z,98390.56
2024-02-10T13:20:24.418Z,98394.22
2024-02-10T13:22:59.795Z,98394.34
2024-02-10T13:25:27.813Z,98400.31
2024-02-10T13:27:54.348Z,98397.88
2024-02-10T13:30:23.711Z,98390.03
2024-02-10T13:32:52.293Z,98392.25
2024-02-10T13:35:21.084Z,98393.53
2024-02-10T13:38:07.872Z,98397.25
2024-02-10T13:40:56.415Z,98395.72
2024-02-10T13:43:43.163Z,98385.94
2024-02-10T13:46:28.471Z,98378.47
2024-02-10T13:49:13.839Z,98387.94
2024-02-10T13:51:58.676Z,98375.28
2024-02-10T13:54:43.414Z,98375.16
2024-02-10T13:57:28.910Z,98369.78
2024-02-10T13:59:55.372Z,98360.47
2024-02-10T14:02:21.809Z,98362.66
2024-02-10T14:04:48.328Z,98364.38
2024-02-10T14:07:33.295Z,98356.56
2024-02-10T14:10:10.965Z,98367.31
2024-02-10T14:12:41.231Z,98365.06
2024-02-10T14:15:25.496Z,98367.03
2024-02-10T14:17:59.986Z,98369.13
2024-02-10T14:20:28.501Z,98362.56
2024-02-10T14:22:56.790Z,98373.31
2024-02-10T14:25:33.307Z,98363.03
2024-02-10T14:28:06.036Z,98365.50
2024-02-10T14:30:43.811Z,98367.38
2024-02-10T14:33:13.100Z,98365.16
2024-02-10T14:36:14.874Z,98364.53
2024-02-10T14:39:10.831Z,98361.03
2024-02-10T14:41:40.025Z,98367.69
2024-02-10T14:44:07.867Z,98369.19
2024-02-10T14:46:34.306Z,98370.69
2024-02-10T14:49:00.910Z,98370.91
2024-02-10T14:51:27.464Z,98378.81
2024-02-10T14:53:54.631Z,98379.06
2024-02-10T14:56:24.697Z,98385.47
2024-02-10T14:58:53.789Z,98389.19
2024-02-10T15:01:20.410Z,98383.66
2024-02-10T15:03:46.946Z,98382.47
2024-02-10T15:06:24.628Z,98378.16
2024-02-10T15:08:54.583Z,98382.69
2024-02-10T15:11:22.911Z,98375.94
2024-02-10T15:13:49.474Z,98378.41
2024-02-10T15:16:22.996Z,98382.69
2024-02-10T15:18:53.355Z,98379.66
2024-02-10T15:21:21.660Z,98371.22
2024-02-10T15:23:48.954Z,98373.31
2024-02-10T15:26:16.809Z,98367.44
2024-02-10T15:28:46.048Z,98377.34
2024-02-10T15:31:12.635Z,98383.94
2024-02-10T15:33:39.150Z,98375.53
2024-02-10T15:36:25.567Z,98379.50
2024-02-10T15:38:51.997Z,98373.53
2024-02-10T15:41:20.018Z,98373.81
2024-02-10T15:43:52.108Z,98368.47
2024-02-10T15:46:19.923Z,98380.22
2024-02-10T15:48:47.775Z,98386.69
2024-02-10T15:51:17.543Z,98380.59
2024-02-10T15:53:44.054Z,98379.16
2024-02-10T15:56:11.449Z,98367.03
2024-02-10T15:58:38.107Z,98371.00
2024-02-10T16:01:04.808Z,98377.38
2024-02-10T16:03:31.334Z,98380.50
2024-02-10T16:05:59.664Z,98379.53
2024-02-10T16:08:26.096Z,98384.50
2024-02-10T16:10:54.493Z,98378.53
2024-02-10T16:13:27.918Z,98379.56
2024-02-10T16:15:54.830Z,98382.94
2024-02-10T16:18:21.292Z,98381.28
2024-02-10T16:20:48.670Z,98390.81
2024-02-10T16:23:16.957Z,98384.47
2024-02-10T16:25:46.436Z,98391.09
2024-02-10T16:28:14.968Z,98391.75
2024-02-10T16:30:42.340Z,98392.97
2024-02-10T16:33:09.127Z,98390.97
2024-02-10T16:35:36.762Z,98389.34
2024-02-10T16:38:04.082Z,98383.81
2024-02-10T16:40:32.077Z,98380.31
2024-02-10T16:43:00.026Z,98380.31
2024-02-10T16:45:27.957Z,98387.34
2024-02-10T16:47:55.225Z,98387.78
2024-02-10T16:50:25.546Z,98393.59
2024-02-10T16:52:54.836Z,98384.13
2024-02-10T16:55:22.619Z,98395.28
2024-02-10T16:57:48.996Z,98380.69
2024-02-10T17:00:25.371Z,98388.72
2024-02-10T17:03:02.246Z,98387.72
2024-02-10T17:05:33.427Z,98386.28
2024-02-10T17:08:04.440Z,98389.41
2024-02-10T17:10:35.711Z,98395.63
2024-02-10T17:13:08.466Z,98389.06
2024-02-10T17:15:38.354Z,98389.72
2024-02-10T17:18:15.816Z,98388.50
2024-02-10T17:20:42.996Z,98394.25
2024-02-10T17:23:09.596Z,98394.69
2024-02-10T17:25:36.210Z,98395.34
2024-02-10T17:28:02.807Z,98389.59
2024-02-10T17:30:32.325Z,98385.47
2024-02-10T17:33:01.801Z,98393.34
2024-02-10T17:35:28.419Z,98400.16
2024-02-10T17:38:02.525Z,98394.38
2024-02-10T17:40:31.909Z,98399.13
2024-02-10T17:42:59.363Z,98399.56
2024-02-10T17:45:27.801Z,98397.72
2024-02-10T17:47:57.696Z,98390.72
2024-02-10T17:50:30.549Z,98390.97
2024-02-10T17:53:07.321Z,98394.22
2024-02-10T17:55:35.162Z,98392.59
2024-02-10T17:58:02.386Z,98387.22
2024-02-10T18:00:28.838Z,98394.22
2024-02-10T18:02:55.783Z,98396.06
2024-02-10T18:05:26.584Z,98396.06
2024-02-10T18:07:54.049Z,98398.75
2024-02-10T18:10:20.530Z,98390.53
2024-02-10T18:12:47.317Z,98390.72
2024-02-10T18:15:16.635Z,98392.19
2024-02-10T18:17:49.226Z,98387.03
2024-02-10T18:20:16.670Z,98387.22
2024-02-10T18:22:44.161Z,98393.63
2024-02-10T18:25:14.556Z,98386.44
2024-02-10T18:27:43.525Z,98383.97
2024-02-10T18:30:12.535Z,98390.34
2024-02-10T18:32:39.414Z,98394.84
2024-02-10T18:35:06.178Z,98396.72
2024-02-10T18:37:32.665Z,98394.03
2024-02-10T18:40:05.651Z,98387.28
2024-02-10T18:42:32.024Z,98387.28
2024-02-10T18:44:58.421Z,98399.81
2024-02-10T18:47:24.809Z,98389.56
2024-02-10T18:49:54.277Z,98390.78
2024-02-10T18:52:23.460Z,98390.38
2024-02-10T18:54:50.061Z,98380.13
2024-02-10T18:57:17.939Z,98387.50
2024-02-10T18:59:45.830Z,98396.97
2024-02-10T19:02:17.898Z,98382.19
2024-02-10T19:04:49.015Z,98386.91
2024-02-10T19:07:22.363Z,98387.97
2024-02-10T19:09:49.210Z,98385.50
2024-02-10T19:12:18.091Z,98392.69
2024-02-10T19:14:46.164Z,98395.56
2024-02-10T19:17:18.430Z,98394.13
2024-02-10T19:19:45.474Z,98391.25
2024-02-10T19:22:11.875Z,98387.75
2024-02-10T19:24:41.617Z,98390.00
2024-02-10T19:27:11.177Z,98400.94
2024-02-10T19:29:38.984Z,98398.25
2024-02-10T19:32:06.308Z,98393.94
2024-02-10T19:34:34.126Z,98398.06
2024-02-10T19:37:02.575Z,98399.50
2024-02-10T19:39:29.001Z,98401.75
2024-02-10T19:41:55.724Z,98400.53
2024-02-10T19:44:25.940Z,98405.28
2024-02-10T19:46:53.650Z,98394.78
2024-02-10T19:49:21.212Z,98407.53
2024-02-10T19:51:48.761Z,98406.72
2024-02-10T19:54:15.760Z,98397.06
2024-02-10T19:56:42.740Z,98397.69
2024-02-10T19:59:11.215Z,98393.38
2024-02-10T20:01:38.122Z,98389.03
2024-02-10T20:04:07.559Z,98398.91
2024-02-10T20:06:34.495Z,98397.88
2024-02-10T20:09:05.323Z,98403.00
2024-02-10T20:11:31.922Z,98400.97
2024-02-10T20:17:11.619Z,98408.59
2024-02-10T20:19:39.566Z,98406.50
2024-02-10T20:22:07.871Z,98405.91
2024-02-10T20:24:36.618Z,98404.03
2024-02-10T20:27:04.431Z,98394.81
2024-02-10T20:29:31.864Z,98400.34
2024-02-10T20:31:59.489Z,98403.66
2024-02-10T20:34:28.857Z,98394.38
2024-02-10T20:36:57.374Z,98398.91
2024-02-10T20:39:29.125Z,98393.75
2024-02-10T20:41:57.766Z,98390.47
2024-02-10T20:44:28.044Z,98393.34
2024-02-10T20:46:55.919Z,98383.47
2024-02-10T20:49:22.730Z,98378.53
2024-02-10T20:51:49.455Z,98374.41
2024-02-10T20:54:18.631Z,98376.69
2024-02-10T20:56:45.086Z,98372.75
2024-02-10T20:59:11.997Z,98371.97
2024-02-10T21:01:38.899Z,98369.88
2024-02-10T21:04:07.740Z,98365.78
2024-02-10T21:06:41.008Z,98366.41
2024-02-10T21:09:11.839Z,98366.41
2024-02-10T21:11:38.853Z,98371.53
2024-02-10T21:14:12.080Z,98365.19
2024-02-10T21:16:40.842Z,98370.50
2024-02-10T21:19:07.758Z,98369.91
2024-02-10T21:21:34.453Z,98374.44
2024-02-10T21:24:00.925Z,98367.03
2024-02-10T21:26:27.631Z,98367.88
2024-02-10T21:28:54.220Z,98376.91
2024-02-10T21:31:20.704Z,98374.66
2024-02-10T21:33:47.376Z,98378.78
2024-02-10T21:36:18.102Z,98374.25
2024-02-10T21:38:46.250Z,98382.28
2024-02-10T21:41:12.704Z,98387.41
2024-02-10T21:43:40.794Z,98387.00
2024-02-10T21:46:07.264Z,98385.38
2024-02-10T21:48:34.373Z,98391.72
2024-02-10T21:51:02.201Z,98388.22
2024-02-10T21:53:28.761Z,98389.47
2024-02-10T21:55:55.314Z,98372.22
2024-02-10T21:58:21.725Z,98379.81
2024-02-10T22:00:48.811Z,98379.41
2024-02-10T22:03:15.258Z,98367.69
2024-02-10T22:05:42.054Z,98377.16
2024-02-10T22:08:08.491Z,98369.72
2024-02-10T22:10:36.720Z,98366.47
2024-02-10T22:13:06.559Z,98370.16
2024-02-10T22:15:33.135Z,98360.88
2024-02-10T22:17:59.722Z,98359.66
2024-02-10T22:20:26.170Z,98355.75
2024-02-10T22:22:52.703Z,98352.91
2024-02-10T22:25:21.556Z,98357.63
2024-02-10T22:27:49.395Z,98355.97
2024-02-10T22:30:20.239Z,98361.53
2024-02-10T22:32:48.603Z,98360.91
2024-02-10T22:35:20.072Z,98353.91
2024-02-10T22:37:46.720Z,98361.09
2024-02-10T22:40:23.565Z,98351.88
2024-02-10T22:42:50.105Z,98347.97
2024-02-10T22:45:16.552Z,98339.97
2024-02-10T22:47:43.673Z,98344.06
2024-02-10T22:50:10.959Z,98347.97
2024-02-10T22:52:37.764Z,98358.25
2024-02-10T22:55:07.416Z,98351.44
2024-02-10T22:57:34.345Z,98355.94
2024-02-10T23:00:00.756Z,98347.94
2024-02-10T23:02:29.518Z,98348.19
2024-02-10T23:04:57.858Z,98349.00
2024-02-10T23:07:24.805Z,98349.59
2024-02-10T23:09:51.342Z,98353.72
2024-02-10T23:12:23.921Z,98347.53
2024-02-10T23:14:54.064Z,98358.63
2024-02-10T23:17:21.505Z,98346.91
2024-02-10T23:19:54.087Z,98340.75
2024-02-10T23:22:29.852Z,98338.91
2024-02-10T23:24:57.594Z,98334.00
2024-02-10T23:27:25.702Z,98330.88
2024-02-10T23:29:55.806Z,98338.09
2024-02-10T23:32:24.058Z,98346.28
2024-02-10T23:34:51.398Z,98344.81
2024-02-10T23:37:23.632Z,98342.78
2024-02-10T23:39:51.033Z,98346.69
2024-02-10T23:42:17.974Z,98350.56
2024-02-10T23:44:46.907Z,98350.16
2024-02-10T23:47:14.647Z,98346.25
2024-02-10T23:49:45.350Z,98355.06
2024-02-10T23:52:16.455Z,98357.72
2024-02-10T23:54:43.129Z,98348.47
2024-02-10T23:57:10.208Z,98345.78
2024-02-10T23:59:39.488Z,98349.69
